WetterOnline ( https://www.wetteronline.at )

Wetter aktuell Titisee-Neustadt

Aktuelles Wetter: Feldberg/Schwarzwald (1493m)

6-stündlich | Neueste Meldungen
Ortszeit Temperatur Wetter
Do, 18.07. 14:00 15.1° C wolkig
Do, 18.07. 8:00 11.9° C wolkenlos
Do, 18.07. 2:00 13.5° C wolkenlos
Mi, 17.07. 20:00 15.1° C wolkenlos
Mi, 17.07. 14:00 15.3° C wolkenlos
Mi, 17.07. 8:00 12.2° C wolkenlos
Mi, 17.07. 2:00 12.9° C wolkenlos
Di, 16.07. 20:00 14.2° C wolkenlos
Ortszeit Temperatur Wetter
Do, 18.07. 15:00 15.0° C wolkig
Do, 18.07. 14:50 15.0° C wolkig
Do, 18.07. 14:40 15.3° C leicht bewölkt
Do, 18.07. 14:30 15.1° C bewölkt
Do, 18.07. 14:20 15.1° C bewölkt
Do, 18.07. 14:10 15.3° C wolkig
Do, 18.07. 14:00 15.1° C wolkig
Do, 18.07. 13:30 14.8° C leicht bewölkt
Do, 18.07. 13:00 14.8° C wolkenlos
Do, 18.07. 12:30 15.0° C wolkenlos
Do, 18.07. 12:00 14.9° C wolkenlos
Ortszeit Relative Feuchte Sichtweite
Do, 18.07. 14:00 56% 50 km
Do, 18.07. 8:00 57% 45 km
Do, 18.07. 2:00 53% 55 km
Mi, 17.07. 20:00 64% 30 km
Mi, 17.07. 14:00 46% 40 km
Mi, 17.07. 8:00 72% 35 km
Mi, 17.07. 2:00 76% 23 km
Di, 16.07. 20:00 59% 55 km
Ortszeit Relative Feuchte Sichtweite
Do, 18.07. 15:00 55% 40 km
Do, 18.07. 14:50 55% -
Do, 18.07. 14:40 54% -
Do, 18.07. 14:30 56% 40 km
Do, 18.07. 14:20 56% -
Do, 18.07. 14:10 57% -
Do, 18.07. 14:00 56% 50 km
Do, 18.07. 13:30 55% 40 km
Do, 18.07. 13:00 56% 40 km
Do, 18.07. 12:30 58% 40 km
Do, 18.07. 12:00 54% 40 km
Ortszeit Niederschlagsmenge Niederschlagsart
Do, 18.07. 14:00 0.0 l/m2 in 6 Std. -
Do, 18.07. 8:00 0.0 l/m2 in 12 Std. -
Do, 18.07. 2:00 0.0 l/m2 in 6 Std. -
Mi, 17.07. 20:00 0.0 l/m2 in 12 Std. -
Mi, 17.07. 14:00 0.0 l/m2 in 6 Std. -
Mi, 17.07. 8:00 0.0 l/m2 in 12 Std. -
Mi, 17.07. 2:00 0.0 l/m2 in 6 Std. -
Di, 16.07. 20:00 0.0 l/m2 in 12 Std. -
Ortszeit Niederschlagsmenge Niederschlagsart
Do, 18.07. 15:00 0.0 l/m2 in 1 Std. -
Do, 18.07. 14:50 keine Meldung -
Do, 18.07. 14:40 keine Meldung -
Do, 18.07. 14:30 0.0 l/m2 in 1 Std. -
Do, 18.07. 14:20 keine Meldung -
Do, 18.07. 14:10 keine Meldung -
Do, 18.07. 14:00 0.0 l/m2 in 1 Std. -
Do, 18.07. 13:30 0.0 l/m2 in 1 Std. -
Do, 18.07. 13:00 0.0 l/m2 in 1 Std. -
Do, 18.07. 12:30 0.0 l/m2 in 1 Std. -
Do, 18.07. 12:00 0.0 l/m2 in 1 Std. -
Ortszeit Stärke Spitze Richtung
km/h Bft. km/h Grad Sektor
Do, 18.07. 14:00 13 3 37 300° NW
Do, 18.07. 8:00 22 4 31 250° W
Do, 18.07. 2:00 9 2 15 330° NW
Mi, 17.07. 20:00 9 2 33 350° N
Mi, 17.07. 14:00 17 3 31 290° W
Mi, 17.07. 8:00 14 3 25 230° SW
Mi, 17.07. 2:00 11 2 18 250° W
Di, 16.07. 20:00 9 2 24 350° N
Ortszeit Stärke Spitze Richtung
km/h Bft. km/h Grad Sektor
Do, 18.07. 15:00 17 3 28 300° NW
Do, 18.07. 14:50 17 3 - 300° NW
Do, 18.07. 14:40 18 3 - 290° W
Do, 18.07. 14:30 11 2 18 320° NW
Do, 18.07. 14:20 11 2 - 320° NW
Do, 18.07. 14:10 7 2 - 270° W
Do, 18.07. 14:00 13 3 31 300° NW
Do, 18.07. 13:30 17 3 31 290° W
Do, 18.07. 13:00 19 3 37 290° W
Do, 18.07. 12:30 22 4 31 290° W
Do, 18.07. 12:00 17 3 30 310° NW
Ortszeit Untergrenze Bedeckung Gattung
total tief tief mittel hoch
Do, 18.07. 14:00 1230 m 5/8 5/8 - - -
Do, 18.07. 8:00 7800 m 0/8 0/8 - - -
Do, 18.07. 2:00 - 0/8 0/8 - - -
Mi, 17.07. 20:00 - 0/8 0/8 - - -
Mi, 17.07. 14:00 - 0/8 0/8 - - -
Mi, 17.07. 8:00 - 0/8 0/8 - - -
Mi, 17.07. 2:00 - 0/8 0/8 - - -
Di, 16.07. 20:00 - 0/8 0/8 - - -
Ortszeit Bedeckungsgrad in Achtel und Wolkenuntergrenze
Do, 18.07. 15:00 1(1110m) 4(1320m) 5(1800m)
Do, 18.07. 14:50 1(1110m) 4(1320m) 5(1800m)
Do, 18.07. 14:40 2(1140m) 3(1380m) 3(10500m)
Do, 18.07. 14:30 2(1110m) 6(1500m) 7(10500m)
Do, 18.07. 14:20 2(1110m) 6(1500m) 7(10500m)
Do, 18.07. 14:10 2(1200m) 5(1500m)
Do, 18.07. 14:00 3(1230m) 5(1500m)
Do, 18.07. 13:30 1(1110m) 3(1350m) 3(1500m)
Do, 18.07. 13:00 1(1110m)
Do, 18.07. 12:30 keine Wolken
Do, 18.07. 12:00 keine Wolken
Ortszeit Stationsdruck (hPa) Tendenz (hPa in 3 Std.)
Do, 18.07. 14:00 851 + 0,6
Do, 18.07. 8:00 850 + 0,1
Do, 18.07. 2:00 851 - 0,1
Mi, 17.07. 20:00 851 - 0,6
Mi, 17.07. 14:00 851 0,0
Mi, 17.07. 8:00 851 - 0,6
Mi, 17.07. 2:00 853 - 0,4
Di, 16.07. 20:00 853 - 0,2
Ortszeit Stationsdruck (hPa) Tendenz (hPa in 3 Std.)
Do, 18.07. 15:00 851 + 0,3
Do, 18.07. 14:50 851 keine Meldung
Do, 18.07. 14:40 851 keine Meldung
Do, 18.07. 14:30 852 + 0,5
Do, 18.07. 14:20 852 keine Meldung
Do, 18.07. 14:10 851 keine Meldung
Do, 18.07. 14:00 851 + 0,6
Do, 18.07. 13:30 851 + 0,7
Do, 18.07. 13:00 851 + 0,9
Do, 18.07. 12:30 851 + 0,9
Do, 18.07. 12:00 851 + 1,0
Ortszeit Schneehöhe (cm)
Do, 18.07. 14:00 0
Do, 18.07. 8:00 0
Do, 18.07. 2:00 0
Mi, 17.07. 20:00 0
Mi, 17.07. 14:00 0
Mi, 17.07. 8:00 0
Mi, 17.07. 2:00 0
Di, 16.07. 20:00 0
Ortszeit Schneehöhe (cm)
Do, 18.07. 15:00 0
Do, 18.07. 14:50 0
Do, 18.07. 14:40 0
Do, 18.07. 14:30 0
Do, 18.07. 14:20 0
Do, 18.07. 14:10 0
Do, 18.07. 14:00 0
Do, 18.07. 13:30 0
Do, 18.07. 13:00 0
Do, 18.07. 12:30 0
Do, 18.07. 12:00 0
Link zu dieser Seite / Seite empfehlen

Das Wetter in ...